sensor_id;sensor_type;location;lat;lon;timestamp;P1;durP1;ratioP1;P2;durP2;ratioP2
56631;SDS011;42503;39.928;-75.152;2023-05-10T00:07:15;6.38;;;2.17;;
56631;SDS011;42503;39.928;-75.152;2023-05-10T00:17:18;5.13;;;2.42;;
56631;SDS011;42503;39.928;-75.152;2023-05-10T00:27:21;4.25;;;1.52;;
56631;SDS011;42503;39.928;-75.152;2023-05-10T00:37:26;3.45;;;1.70;;
56631;SDS011;42503;39.928;-75.152;2023-05-10T00:47:27;4.63;;;2.10;;
56631;SDS011;42503;39.928;-75.152;2023-05-10T00:57:29;3.10;;;1.75;;
56631;SDS011;42503;39.928;-75.152;2023-05-10T01:07:31;5.82;;;1.83;;
56631;SDS011;42503;39.928;-75.152;2023-05-10T01:17:33;4.32;;;1.90;;
56631;SDS011;42503;39.928;-75.152;2023-05-10T01:48:29;6.07;;;2.25;;
56631;SDS011;42503;39.928;-75.152;2023-05-10T01:58:32;9.25;;;2.40;;
56631;SDS011;42503;39.928;-75.152;2023-05-10T02:08:37;5.03;;;1.55;;
56631;SDS011;42503;39.928;-75.152;2023-05-10T02:18:43;4.05;;;1.70;;
56631;SDS011;42503;39.928;-75.152;2023-05-10T02:28:45;6.10;;;1.67;;
56631;SDS011;42503;39.928;-75.152;2023-05-10T02:38:48;2.33;;;1.60;;
56631;SDS011;42503;39.928;-75.152;2023-05-10T02:48:52;5.40;;;1.67;;
56631;SDS011;42503;39.928;-75.152;2023-05-10T02:58:53;2.92;;;1.55;;
56631;SDS011;42503;39.928;-75.152;2023-05-10T03:08:56;5.05;;;1.90;;
56631;SDS011;42503;39.928;-75.152;2023-05-10T03:29:13;3.13;;;1.20;;
56631;SDS011;42503;39.928;-75.152;2023-05-10T03:39:22;3.17;;;1.60;;
56631;SDS011;42503;39.928;-75.152;2023-05-10T03:49:23;3.03;;;1.30;;
56631;SDS011;42503;39.928;-75.152;2023-05-10T03:59:25;3.95;;;1.15;;
56631;SDS011;42503;39.928;-75.152;2023-05-10T04:09:26;3.28;;;1.20;;
56631;SDS011;42503;39.928;-75.152;2023-05-10T04:19:30;2.03;;;1.33;;
56631;SDS011;42503;39.928;-75.152;2023-05-10T04:29:32;1.40;;;1.13;;
56631;SDS011;42503;39.928;-75.152;2023-05-10T04:39:33;3.85;;;1.40;;
56631;SDS011;42503;39.928;-75.152;2023-05-10T04:49:37;3.00;;;1.50;;
56631;SDS011;42503;39.928;-75.152;2023-05-10T04:59:41;1.60;;;1.40;;
56631;SDS011;42503;39.928;-75.152;2023-05-10T05:09:43;3.00;;;1.52;;
56631;SDS011;42503;39.928;-75.152;2023-05-10T05:19:44;6.47;;;1.38;;
56631;SDS011;42503;39.928;-75.152;2023-05-10T05:29:46;4.53;;;1.50;;
56631;SDS011;42503;39.928;-75.152;2023-05-10T05:39:47;3.35;;;1.60;;
56631;SDS011;42503;39.928;-75.152;2023-05-10T05:49:49;2.67;;;1.60;;
56631;SDS011;42503;39.928;-75.152;2023-05-10T05:59:50;2.53;;;1.65;;
56631;SDS011;42503;39.928;-75.152;2023-05-10T06:09:52;3.15;;;1.30;;
56631;SDS011;42503;39.928;-75.152;2023-05-10T06:19:56;3.47;;;1.40;;
56631;SDS011;42503;39.928;-75.152;2023-05-10T06:29:57;3.63;;;1.50;;
56631;SDS011;42503;39.928;-75.152;2023-05-10T06:39:59;1.90;;;1.50;;
56631;SDS011;42503;39.928;-75.152;2023-05-10T06:50:03;3.38;;;1.85;;
56631;SDS011;42503;39.928;-75.152;2023-05-10T07:00:10;3.22;;;1.75;;
56631;SDS011;42503;39.928;-75.152;2023-05-10T07:10:20;1.80;;;1.50;;
56631;SDS011;42503;39.928;-75.152;2023-05-10T07:20:24;2.92;;;1.70;;
56631;SDS011;42503;39.928;-75.152;2023-05-10T07:30:27;8.40;;;1.95;;
56631;SDS011;42503;39.928;-75.152;2023-05-10T07:40:29;2.80;;;1.25;;
56631;SDS011;42503;39.928;-75.152;2023-05-10T07:50:30;3.75;;;1.58;;
56631;SDS011;42503;39.928;-75.152;2023-05-10T08:00:32;2.15;;;1.50;;
56631;SDS011;42503;39.928;-75.152;2023-05-10T08:10:36;4.03;;;1.98;;
56631;SDS011;42503;39.928;-75.152;2023-05-10T08:20:39;2.38;;;1.60;;
56631;SDS011;42503;39.928;-75.152;2023-05-10T08:30:41;2.75;;;1.65;;
56631;SDS011;42503;39.928;-75.152;2023-05-10T08:40:42;3.38;;;1.90;;
56631;SDS011;42503;39.928;-75.152;2023-05-10T08:50:45;4.07;;;1.80;;
56631;SDS011;42503;39.928;-75.152;2023-05-10T09:00:51;3.08;;;1.88;;
56631;SDS011;42503;39.928;-75.152;2023-05-10T09:10:53;2.88;;;1.70;;
56631;SDS011;42503;39.928;-75.152;2023-05-10T09:20:56;4.07;;;1.77;;
56631;SDS011;42503;39.928;-75.152;2023-05-10T09:31:02;4.00;;;1.48;;
56631;SDS011;42503;39.928;-75.152;2023-05-10T09:41:14;2.10;;;1.40;;
56631;SDS011;42503;39.928;-75.152;2023-05-10T09:51:22;1.92;;;1.30;;
56631;SDS011;42503;39.928;-75.152;2023-05-10T10:01:25;3.60;;;1.60;;
56631;SDS011;42503;39.928;-75.152;2023-05-10T10:11:30;3.30;;;1.63;;
56631;SDS011;42503;39.928;-75.152;2023-05-10T10:21:42;5.03;;;1.42;;
56631;SDS011;42503;39.928;-75.152;2023-05-10T10:42:09;7.72;;;1.85;;
56631;SDS011;42503;39.928;-75.152;2023-05-10T11:02:42;11.87;;;2.23;;
56631;SDS011;42503;39.928;-75.152;2023-05-10T11:13:03;12.18;;;2.65;;
56631;SDS011;42503;39.928;-75.152;2023-05-10T11:33:50;7.50;;;2.63;;
56631;SDS011;42503;39.928;-75.152;2023-05-10T11:43:59;9.48;;;2.33;;
56631;SDS011;42503;39.928;-75.152;2023-05-10T11:54:01;6.28;;;2.67;;
56631;SDS011;42503;39.928;-75.152;2023-05-10T12:04:07;6.88;;;2.50;;
56631;SDS011;42503;39.928;-75.152;2023-05-10T12:14:09;5.00;;;2.05;;
56631;SDS011;42503;39.928;-75.152;2023-05-10T12:24:11;11.23;;;2.83;;
56631;SDS011;42503;39.928;-75.152;2023-05-10T12:34:22;7.28;;;2.20;;
56631;SDS011;42503;39.928;-75.152;2023-05-10T12:44:27;4.47;;;2.42;;
56631;SDS011;42503;39.928;-75.152;2023-05-10T12:54:28;7.93;;;2.67;;
56631;SDS011;42503;39.928;-75.152;2023-05-10T13:04:29;8.77;;;2.20;;
56631;SDS011;42503;39.928;-75.152;2023-05-10T13:14:31;9.00;;;2.22;;
56631;SDS011;42503;39.928;-75.152;2023-05-10T13:24:32;9.18;;;2.45;;
56631;SDS011;42503;39.928;-75.152;2023-05-10T13:34:34;4.80;;;1.92;;
56631;SDS011;42503;39.928;-75.152;2023-05-10T13:44:36;9.10;;;2.45;;
56631;SDS011;42503;39.928;-75.152;2023-05-10T13:54:42;4.05;;;1.80;;
56631;SDS011;42503;39.928;-75.152;2023-05-10T14:04:43;3.50;;;2.08;;
56631;SDS011;42503;39.928;-75.152;2023-05-10T14:14:44;5.07;;;2.15;;
56631;SDS011;42503;39.928;-75.152;2023-05-10T14:24:46;7.65;;;2.25;;
56631;SDS011;42503;39.928;-75.152;2023-05-10T14:34:47;5.32;;;1.52;;
56631;SDS011;42503;39.928;-75.152;2023-05-10T14:44:49;4.03;;;1.35;;
56631;SDS011;42503;39.928;-75.152;2023-05-10T14:54:50;2.90;;;1.38;;
56631;SDS011;42503;39.928;-75.152;2023-05-10T15:04:51;3.30;;;1.70;;
56631;SDS011;42503;39.928;-75.152;2023-05-10T15:14:53;4.15;;;1.55;;
56631;SDS011;42503;39.928;-75.152;2023-05-10T15:24:54;3.88;;;1.70;;
56631;SDS011;42503;39.928;-75.152;2023-05-10T15:34:56;5.00;;;1.83;;
56631;SDS011;42503;39.928;-75.152;2023-05-10T15:44:57;1.85;;;1.67;;
56631;SDS011;42503;39.928;-75.152;2023-05-10T15:55:02;3.42;;;1.90;;
56631;SDS011;42503;39.928;-75.152;2023-05-10T16:05:03;4.57;;;2.00;;
56631;SDS011;42503;39.928;-75.152;2023-05-10T16:15:05;4.00;;;1.92;;
56631;SDS011;42503;39.928;-75.152;2023-05-10T16:25:07;4.80;;;1.92;;
56631;SDS011;42503;39.928;-75.152;2023-05-10T16:35:09;4.05;;;1.67;;
56631;SDS011;42503;39.928;-75.152;2023-05-10T16:45:11;3.75;;;1.85;;
56631;SDS011;42503;39.928;-75.152;2023-05-10T16:55:12;3.22;;;1.88;;
56631;SDS011;42503;39.928;-75.152;2023-05-10T17:05:14;3.63;;;1.90;;
56631;SDS011;42503;39.928;-75.152;2023-05-10T17:15:15;8.82;;;1.90;;
56631;SDS011;42503;39.928;-75.152;2023-05-10T17:25:18;3.50;;;2.30;;
56631;SDS011;42503;39.928;-75.152;2023-05-10T17:35:22;4.15;;;2.20;;
56631;SDS011;42503;39.928;-75.152;2023-05-10T17:45:24;2.88;;;2.20;;
56631;SDS011;42503;39.928;-75.152;2023-05-10T17:55:26;3.42;;;2.40;;
56631;SDS011;42503;39.928;-75.152;2023-05-10T18:05:29;3.85;;;2.10;;
56631;SDS011;42503;39.928;-75.152;2023-05-10T18:15:31;5.25;;;2.25;;
56631;SDS011;42503;39.928;-75.152;2023-05-10T18:25:37;4.75;;;2.50;;
56631;SDS011;42503;39.928;-75.152;2023-05-10T18:35:41;3.63;;;2.58;;
56631;SDS011;42503;39.928;-75.152;2023-05-10T18:45:42;4.50;;;2.50;;
56631;SDS011;42503;39.928;-75.152;2023-05-10T18:55:43;3.53;;;2.67;;
56631;SDS011;42503;39.928;-75.152;2023-05-10T19:05:45;5.20;;;2.83;;
56631;SDS011;42503;39.928;-75.152;2023-05-10T19:16:04;5.57;;;2.95;;
56631;SDS011;42503;39.928;-75.152;2023-05-10T19:26:10;3.92;;;2.50;;
56631;SDS011;42503;39.928;-75.152;2023-05-10T19:36:12;6.30;;;2.88;;
56631;SDS011;42503;39.928;-75.152;2023-05-10T19:46:16;5.00;;;3.08;;
56631;SDS011;42503;39.928;-75.152;2023-05-10T19:56:17;4.65;;;2.65;;
56631;SDS011;42503;39.928;-75.152;2023-05-10T20:06:21;5.40;;;2.65;;
56631;SDS011;42503;39.928;-75.152;2023-05-10T20:16:22;3.95;;;2.83;;
56631;SDS011;42503;39.928;-75.152;2023-05-10T20:26:24;4.00;;;2.83;;
56631;SDS011;42503;39.928;-75.152;2023-05-10T20:36:25;3.08;;;2.42;;
56631;SDS011;42503;39.928;-75.152;2023-05-10T20:46:31;5.57;;;3.03;;
56631;SDS011;42503;39.928;-75.152;2023-05-10T20:56:33;5.40;;;2.75;;
56631;SDS011;42503;39.928;-75.152;2023-05-10T21:06:34;5.25;;;2.88;;
56631;SDS011;42503;39.928;-75.152;2023-05-10T21:16:36;5.53;;;2.28;;
56631;SDS011;42503;39.928;-75.152;2023-05-10T21:26:37;4.47;;;2.80;;
56631;SDS011;42503;39.928;-75.152;2023-05-10T21:36:38;3.28;;;2.05;;
56631;SDS011;42503;39.928;-75.152;2023-05-10T21:46:40;3.85;;;2.13;;
56631;SDS011;42503;39.928;-75.152;2023-05-10T21:56:41;2.92;;;1.63;;
56631;SDS011;42503;39.928;-75.152;2023-05-10T22:06:42;4.35;;;2.13;;
56631;SDS011;42503;39.928;-75.152;2023-05-10T22:16:47;3.17;;;2.22;;
56631;SDS011;42503;39.928;-75.152;2023-05-10T22:26:48;4.22;;;2.65;;
56631;SDS011;42503;39.928;-75.152;2023-05-10T22:36:50;3.63;;;2.45;;
56631;SDS011;42503;39.928;-75.152;2023-05-10T22:46:51;3.45;;;2.58;;
56631;SDS011;42503;39.928;-75.152;2023-05-10T22:56:52;2.70;;;2.03;;
56631;SDS011;42503;39.928;-75.152;2023-05-10T23:06:54;5.00;;;1.88;;
56631;SDS011;42503;39.928;-75.152;2023-05-10T23:16:55;5.65;;;2.08;;
56631;SDS011;42503;39.928;-75.152;2023-05-10T23:26:57;5.28;;;2.22;;
56631;SDS011;42503;39.928;-75.152;2023-05-10T23:37:01;2.40;;;2.20;;
56631;SDS011;42503;39.928;-75.152;2023-05-10T23:47:02;6.38;;;2.35;;
56631;SDS011;42503;39.928;-75.152;2023-05-10T23:57:04;5.40;;;2.40;;
